createdAt,value
2022-09-13T00:00:19.415Z,4.23
2022-09-13T00:02:47.370Z,5.33
2022-09-13T00:05:16.628Z,3.90
2022-09-13T00:07:44.362Z,4.03
2022-09-13T00:10:12.286Z,3.97
2022-09-13T00:12:41.703Z,3.93
2022-09-13T00:15:10.184Z,4.53
2022-09-13T00:17:37.940Z,3.97
2022-09-13T00:20:06.771Z,4.10
2022-09-13T00:22:36.854Z,3.90
2022-09-13T00:25:05.693Z,4.20
2022-09-13T00:27:33.598Z,3.97
2022-09-13T00:30:02.009Z,3.83
2022-09-13T00:32:29.850Z,3.90
2022-09-13T00:34:58.230Z,4.00
2022-09-13T00:37:26.027Z,3.73
2022-09-13T00:39:55.119Z,4.13
2022-09-13T00:42:26.844Z,4.67
2022-09-13T00:44:57.654Z,4.60
2022-09-13T00:47:30.087Z,4.10
2022-09-13T00:50:03.743Z,4.50
2022-09-13T00:52:33.869Z,4.27
2022-09-13T00:55:06.394Z,4.33
2022-09-13T00:57:36.818Z,4.87
2022-09-13T01:00:11.684Z,3.90
2022-09-13T01:02:42.710Z,4.17
2022-09-13T01:05:11.943Z,4.07
2022-09-13T01:07:40.637Z,4.13
2022-09-13T01:10:11.466Z,4.07
2022-09-13T01:12:46.986Z,4.57
2022-09-13T01:15:15.265Z,4.50
2022-09-13T01:17:44.736Z,4.60
2022-09-13T01:20:15.024Z,5.63
2022-09-13T01:23:30.415Z,3.70
2022-09-13T01:26:27.858Z,7.27
2022-09-13T01:29:42.752Z,3.70
2022-09-13T01:32:19.685Z,4.23
2022-09-13T01:35:01.584Z,3.80
2022-09-13T01:37:40.853Z,4.03
2022-09-13T01:40:20.576Z,4.80
2022-09-13T01:42:59.795Z,4.50
2022-09-13T01:45:38.597Z,4.10
2022-09-13T01:48:16.867Z,4.27
2022-09-13T01:50:48.836Z,4.60
2022-09-13T01:53:26.795Z,4.70
2022-09-13T01:56:02.741Z,4.27
2022-09-13T01:58:35.311Z,4.50
2022-09-13T02:01:15.341Z,4.03
2022-09-13T02:03:50.164Z,4.43
2022-09-13T02:06:22.290Z,4.67
2022-09-13T02:08:53.839Z,4.27
2022-09-13T02:11:24.188Z,4.20
2022-09-13T02:13:58.992Z,4.03
2022-09-13T02:16:32.039Z,4.30
2022-09-13T02:19:08.559Z,4.53
2022-09-13T02:21:40.401Z,4.30
2022-09-13T02:24:09.896Z,4.60
2022-09-13T02:26:45.853Z,4.87
2022-09-13T02:29:20.041Z,4.27
2022-09-13T02:31:52.709Z,4.20
2022-09-13T02:34:26.300Z,4.30
2022-09-13T02:36:56.963Z,4.00
2022-09-13T02:39:26.690Z,4.17
2022-09-13T02:41:57.943Z,4.33
2022-09-13T02:44:32.158Z,4.33
2022-09-13T02:47:13.174Z,4.00
2022-09-13T02:49:51.738Z,3.77
2022-09-13T02:52:26.660Z,6.07
2022-09-13T02:55:00.781Z,4.23
2022-09-13T02:57:33.000Z,6.80
2022-09-13T03:00:01.187Z,4.20
2022-09-13T03:02:33.003Z,4.20
2022-09-13T03:05:03.051Z,3.83
2022-09-13T03:07:31.434Z,3.97
2022-09-13T03:10:05.585Z,4.57
2022-09-13T03:13:06.979Z,4.37
2022-09-13T03:15:48.585Z,4.93
2022-09-13T03:18:31.064Z,4.37
2022-09-13T03:21:09.060Z,4.43
2022-09-13T03:23:45.784Z,4.33
2022-09-13T03:26:25.967Z,4.70
2022-09-13T03:29:11.944Z,3.90
2022-09-13T03:31:50.430Z,4.40
2022-09-13T03:34:30.467Z,4.30
2022-09-13T03:37:05.580Z,4.37
2022-09-13T03:39:41.014Z,4.10
2022-09-13T03:42:15.565Z,4.83
2022-09-13T03:44:46.422Z,4.37
2022-09-13T03:47:15.577Z,4.60
2022-09-13T03:49:44.573Z,4.23
2022-09-13T03:52:15.148Z,4.43
2022-09-13T03:54:43.574Z,4.80
2022-09-13T03:57:14.303Z,6.53
2022-09-13T03:59:47.072Z,4.77
2022-09-13T04:02:15.490Z,5.33
2022-09-13T04:04:45.106Z,4.13
2022-09-13T04:07:17.191Z,4.60
2022-09-13T04:09:45.965Z,4.97
2022-09-13T04:12:15.391Z,4.57
2022-09-13T04:14:44.032Z,4.30
2022-09-13T04:17:12.800Z,4.33
2022-09-13T04:19:41.066Z,4.60
2022-09-13T04:22:09.976Z,4.50
2022-09-13T04:24:40.723Z,4.40
2022-09-13T04:27:09.224Z,4.63
2022-09-13T04:29:37.020Z,4.70
2022-09-13T04:32:04.808Z,4.33
2022-09-13T04:34:32.540Z,4.73
2022-09-13T04:37:00.277Z,4.30
2022-09-13T04:39:28.321Z,4.07
2022-09-13T04:41:58.689Z,4.07
2022-09-13T04:44:27.869Z,4.73
2022-09-13T04:46:55.981Z,4.13
2022-09-13T04:49:23.754Z,4.30
2022-09-13T04:51:51.519Z,4.30
2022-09-13T04:54:19.478Z,4.40
2022-09-13T04:56:47.950Z,4.63
2022-09-13T04:59:17.476Z,4.70
2022-09-13T05:01:45.353Z,4.90
2022-09-13T05:04:13.431Z,4.53
2022-09-13T05:06:41.125Z,4.83
2022-09-13T05:09:08.870Z,4.63
2022-09-13T05:11:36.610Z,5.00
2022-09-13T05:14:05.881Z,4.53
2022-09-13T05:16:35.404Z,4.83
2022-09-13T05:19:03.583Z,4.73
2022-09-13T05:21:32.223Z,4.23
2022-09-13T05:24:00.441Z,4.43
2022-09-13T05:26:31.454Z,4.40
2022-09-13T05:29:01.265Z,6.03
2022-09-13T05:31:31.330Z,4.77
2022-09-13T05:34:01.769Z,4.57
2022-09-13T05:36:31.650Z,4.90
2022-09-13T05:41:49.060Z,4.33
2022-09-13T05:44:17.070Z,5.30
2022-09-13T05:46:48.538Z,4.40
2022-09-13T05:49:18.055Z,4.47
2022-09-13T05:51:45.796Z,4.47
2022-09-13T05:54:14.509Z,4.23
2022-09-13T05:56:42.255Z,4.77
2022-09-13T05:59:13.222Z,4.80
2022-09-13T06:01:40.939Z,4.47
2022-09-13T06:04:09.124Z,4.23
2022-09-13T06:06:38.306Z,4.80
2022-09-13T06:09:08.590Z,4.70
2022-09-13T06:11:36.493Z,4.77
2022-09-13T06:14:05.153Z,4.30
2022-09-13T06:16:33.688Z,4.60
2022-09-13T06:19:01.563Z,4.40
2022-09-13T06:21:29.662Z,4.67
2022-09-13T06:23:59.017Z,4.30
2022-09-13T06:26:28.101Z,4.47
2022-09-13T06:28:58.243Z,4.53
2022-09-13T06:31:28.586Z,4.30
2022-09-13T06:33:58.629Z,4.80
2022-09-13T06:36:27.176Z,4.60
2022-09-13T06:38:57.139Z,4.23
2022-09-13T06:41:27.360Z,5.03
2022-09-13T06:43:57.510Z,4.53
2022-09-13T06:46:27.099Z,5.10
2022-09-13T06:48:55.760Z,4.30
2022-09-13T06:51:25.300Z,4.47
2022-09-13T06:53:56.745Z,3.93
2022-09-13T06:56:27.441Z,4.37
2022-09-13T06:58:57.897Z,4.67
2022-09-13T07:01:28.360Z,4.80
2022-09-13T07:04:00.013Z,7.60
2022-09-13T07:06:29.633Z,4.43
2022-09-13T07:08:59.615Z,5.10
2022-09-13T07:11:31.842Z,4.90
2022-09-13T07:14:01.139Z,4.77
2022-09-13T07:16:30.713Z,5.87
2022-09-13T07:19:00.306Z,4.30
2022-09-13T07:21:29.350Z,4.60
2022-09-13T07:23:58.032Z,4.20
2022-09-13T07:26:27.409Z,4.40
2022-09-13T07:28:59.711Z,4.23
2022-09-13T07:31:29.432Z,4.37
2022-09-13T07:33:58.946Z,8.37
2022-09-13T07:36:28.241Z,4.43
2022-09-13T07:38:56.514Z,4.23
2022-09-13T07:41:26.574Z,3.87
2022-09-13T07:43:56.595Z,5.57
2022-09-13T07:46:26.999Z,4.10
2022-09-13T07:48:56.378Z,4.60
2022-09-13T07:51:25.860Z,3.97
2022-09-13T07:53:57.831Z,6.13
2022-09-13T07:56:29.689Z,4.93
2022-09-13T07:59:01.388Z,4.83
2022-09-13T08:01:30.488Z,4.43
2022-09-13T08:03:59.714Z,4.50
2022-09-13T08:06:30.302Z,4.57
2022-09-13T08:08:58.876Z,6.87
2022-09-13T08:11:30.125Z,5.67
2022-09-13T08:14:00.547Z,5.63
2022-09-13T08:16:29.753Z,5.37
2022-09-13T08:19:00.557Z,5.17
2022-09-13T08:21:32.550Z,5.07
2022-09-13T08:24:00.811Z,6.07
2022-09-13T08:26:29.479Z,5.93
2022-09-13T08:29:00.278Z,6.63
2022-09-13T08:31:29.651Z,6.13
2022-09-13T08:33:58.099Z,6.93
2022-09-13T08:36:27.090Z,6.17
2022-09-13T08:38:57.859Z,7.03
2022-09-13T08:41:52.827Z,5.37
2022-09-13T08:44:28.841Z,6.43
2022-09-13T08:47:03.925Z,6.47
2022-09-13T08:49:35.786Z,6.57
2022-09-13T08:52:13.228Z,8.67
2022-09-13T08:54:40.882Z,7.40
2022-09-13T08:57:16.895Z,6.37
2022-09-13T08:59:53.953Z,5.73
2022-09-13T09:02:37.823Z,6.10
2022-09-13T09:05:11.099Z,5.77
2022-09-13T09:07:42.884Z,6.47
2022-09-13T09:10:17.164Z,7.13
2022-09-13T09:12:49.609Z,6.43
2022-09-13T09:15:23.302Z,6.73
2022-09-13T09:17:56.534Z,6.23
2022-09-13T09:20:28.427Z,7.37
2022-09-13T09:22:56.971Z,6.40
2022-09-13T09:25:26.825Z,6.97
2022-09-13T09:27:55.609Z,6.93
2022-09-13T09:30:34.829Z,7.53
2022-09-13T09:33:29.010Z,8.17
2022-09-13T09:36:04.875Z,7.87
2022-09-13T09:38:37.243Z,7.83
2022-09-13T09:41:12.027Z,7.77
2022-09-13T09:43:45.909Z,8.23
2022-09-13T09:46:17.892Z,7.63
2022-09-13T09:48:52.787Z,7.70
2022-09-13T09:51:23.320Z,7.77
2022-09-13T09:53:56.300Z,7.57
2022-09-13T09:56:26.915Z,8.50
2022-09-13T09:58:56.112Z,8.07
2022-09-13T10:01:27.681Z,7.70
2022-09-13T10:04:04.582Z,7.77
2022-09-13T10:06:32.888Z,7.77
2022-09-13T10:09:02.809Z,7.37
2022-09-13T10:11:40.734Z,6.70
2022-09-13T10:14:33.162Z,7.33
2022-09-13T10:17:15.523Z,6.70
2022-09-13T10:19:54.146Z,6.60
2022-09-13T10:22:42.807Z,8.50
2022-09-13T10:25:32.010Z,6.30
2022-09-13T10:28:20.938Z,5.17
2022-09-13T10:31:16.274Z,5.73
2022-09-13T10:34:14.972Z,5.00
2022-09-13T10:37:06.973Z,5.80
2022-09-13T10:40:01.550Z,7.80
2022-09-13T10:42:54.173Z,5.80
2022-09-13T10:45:43.470Z,5.63
2022-09-13T10:48:45.147Z,5.13
2022-09-13T10:51:38.117Z,5.87
2022-09-13T10:54:26.766Z,5.63
2022-09-13T10:57:33.800Z,5.90
2022-09-13T11:00:24.238Z,5.13
2022-09-13T11:03:27.412Z,4.70
2022-09-13T11:06:21.585Z,4.03
2022-09-13T11:09:15.762Z,4.00
2022-09-13T11:12:13.001Z,4.23
2022-09-13T11:15:16.366Z,3.73
2022-09-13T11:18:34.262Z,4.40
2022-09-13T11:21:32.598Z,3.60
2022-09-13T11:24:46.049Z,4.10
2022-09-13T11:27:44.725Z,3.47
2022-09-13T11:30:37.889Z,3.90
2022-09-13T11:33:39.365Z,4.30
2022-09-13T11:36:45.921Z,4.27
2022-09-13T11:39:39.681Z,4.97
2022-09-13T11:42:43.244Z,4.77
2022-09-13T11:45:38.404Z,4.00
2022-09-13T11:48:57.011Z,4.23
2022-09-13T11:51:58.069Z,3.73
2022-09-13T11:55:00.867Z,4.97
2022-09-13T11:57:53.473Z,4.40
2022-09-13T12:00:45.756Z,4.43
2022-09-13T12:03:41.142Z,4.83
2022-09-13T12:06:33.361Z,3.47
2022-09-13T12:09:24.472Z,4.40
2022-09-13T12:12:15.165Z,3.40
2022-09-13T12:15:08.994Z,4.27
2022-09-13T12:18:02.115Z,5.20
2022-09-13T12:20:52.961Z,3.73
2022-09-13T12:23:48.103Z,3.57
2022-09-13T12:26:40.862Z,4.17
2022-09-13T12:29:37.651Z,3.97
2022-09-13T12:32:25.816Z,4.10
2022-09-13T12:35:23.749Z,4.27
2022-09-13T12:38:29.372Z,3.80
2022-09-13T12:41:32.388Z,4.90
2022-09-13T12:44:34.939Z,4.77
2022-09-13T12:47:42.733Z,5.07
2022-09-13T12:50:47.411Z,5.23
2022-09-13T12:54:00.572Z,5.23
2022-09-13T12:57:01.144Z,6.10
2022-09-13T13:00:13.971Z,4.83
2022-09-13T13:03:11.762Z,4.03
2022-09-13T13:06:10.682Z,3.93
2022-09-13T13:09:03.007Z,4.70
2022-09-13T13:11:53.653Z,5.83
2022-09-13T13:14:53.429Z,4.70
2022-09-13T13:17:46.511Z,5.60
2022-09-13T13:21:05.332Z,6.27
2022-09-13T13:24:30.855Z,5.27
2022-09-13T13:27:41.157Z,5.00
2022-09-13T13:30:54.053Z,5.20
2022-09-13T13:33:50.548Z,4.80
2022-09-13T13:36:49.030Z,4.80
2022-09-13T13:39:40.320Z,6.23
2022-09-13T13:42:31.715Z,5.23
2022-09-13T13:45:28.573Z,4.50
2022-09-13T13:48:17.114Z,5.40
2022-09-13T13:51:21.564Z,4.43
2022-09-13T13:54:31.359Z,5.90
2022-09-13T13:57:25.047Z,4.73
2022-09-13T14:00:16.184Z,4.40
2022-09-13T14:03:18.248Z,5.30
2022-09-13T14:06:13.519Z,4.10
2022-09-13T14:09:21.097Z,4.40
2022-09-13T14:12:22.617Z,5.43
2022-09-13T14:15:22.776Z,5.67
2022-09-13T14:18:35.223Z,3.93
2022-09-13T14:21:26.716Z,4.00
2022-09-13T14:24:21.537Z,3.57
2022-09-13T14:27:16.454Z,4.40
2022-09-13T14:30:17.192Z,3.20
2022-09-13T14:33:06.422Z,3.17
2022-09-13T14:36:00.369Z,3.50
2022-09-13T14:38:55.037Z,2.80
2022-09-13T14:41:44.864Z,4.18
2022-09-13T14:44:33.183Z,3.75
2022-09-13T14:47:28.423Z,3.20
2022-09-13T14:50:20.288Z,3.63
2022-09-13T14:53:13.457Z,3.30
2022-09-13T14:56:06.152Z,2.95
2022-09-13T14:58:59.433Z,2.97
2022-09-13T15:01:47.882Z,3.33
2022-09-13T15:04:39.916Z,2.97
2022-09-13T15:07:33.540Z,2.90
2022-09-13T15:10:25.718Z,3.97
2022-09-13T15:13:16.776Z,6.88
2022-09-13T15:16:30.130Z,5.80
2022-09-13T15:19:36.471Z,2.83
2022-09-13T15:22:26.661Z,3.25
2022-09-13T15:25:21.812Z,3.67
2022-09-13T15:28:22.427Z,7.20
2022-09-13T15:31:11.370Z,3.72
2022-09-13T15:34:24.064Z,1.70
2022-09-13T15:37:14.720Z,7.35
2022-09-13T15:40:19.551Z,22.40
2022-09-13T15:43:07.675Z,10.73
2022-09-13T15:45:57.890Z,3.88
2022-09-13T15:48:52.432Z,2.30
2022-09-13T15:51:44.088Z,2.35
2022-09-13T15:54:34.266Z,2.63
2022-09-13T15:57:26.638Z,2.38
2022-09-13T16:00:20.622Z,2.10
2022-09-13T16:03:10.138Z,3.20
2022-09-13T16:05:58.441Z,2.15
2022-09-13T16:08:48.055Z,2.10
2022-09-13T16:11:35.987Z,1.60
2022-09-13T16:14:23.966Z,1.60
2022-09-13T16:17:21.842Z,1.42
2022-09-13T16:20:13.920Z,1.45
2022-09-13T16:23:02.108Z,1.87
2022-09-13T16:25:57.292Z,4.77
2022-09-13T16:28:45.545Z,5.57
2022-09-13T16:31:33.985Z,9.17
2022-09-13T16:34:22.571Z,7.80
2022-09-13T16:37:14.861Z,6.47
2022-09-13T16:40:03.809Z,6.07
2022-09-13T16:42:54.360Z,2.97
2022-09-13T16:45:44.905Z,2.33
2022-09-13T16:48:32.955Z,4.07
2022-09-13T16:51:21.751Z,1.80
2022-09-13T16:54:09.847Z,3.30
2022-09-13T16:56:59.162Z,5.97
2022-09-13T16:59:48.629Z,5.23
2022-09-13T17:02:37.130Z,4.63
2022-09-13T17:05:25.842Z,5.27
2022-09-13T17:08:14.149Z,2.30
2022-09-13T17:11:06.910Z,3.60
2022-09-13T17:13:56.808Z,5.07
2022-09-13T17:16:48.377Z,2.63
2022-09-13T17:19:36.924Z,2.67
2022-09-13T17:22:26.661Z,2.90
2022-09-13T17:25:16.160Z,4.30
2022-09-13T17:28:04.277Z,3.63
2022-09-13T17:30:54.074Z,2.30
2022-09-13T17:33:43.490Z,3.33
2022-09-13T17:36:31.463Z,2.90
2022-09-13T17:39:20.080Z,2.13
2022-09-13T17:42:08.044Z,1.60
2022-09-13T17:44:56.176Z,1.60
2022-09-13T17:47:44.049Z,1.17
2022-09-13T17:50:33.474Z,1.00
2022-09-13T17:53:21.682Z,1.20
2022-09-13T17:56:10.444Z,1.97
2022-09-13T17:59:07.988Z,1.50
2022-09-13T18:02:00.681Z,1.30
2022-09-13T18:04:50.760Z,1.63
2022-09-13T18:07:40.578Z,1.33
2022-09-13T18:10:53.102Z,1.53
2022-09-13T18:13:37.669Z,1.33
2022-09-13T18:16:28.598Z,2.60
2022-09-13T18:19:16.793Z,2.23
2022-09-13T18:22:04.768Z,1.27
2022-09-13T18:24:54.523Z,2.20
2022-09-13T18:27:42.662Z,3.87
2022-09-13T18:30:31.126Z,1.17
2022-09-13T18:33:21.060Z,1.00
2022-09-13T18:36:10.525Z,1.57
2022-09-13T18:38:58.813Z,1.13
2022-09-13T18:41:49.739Z,2.50
2022-09-13T18:44:37.929Z,1.27
2022-09-13T18:47:26.416Z,1.10
2022-09-13T18:50:19.212Z,1.30
2022-09-13T18:53:08.901Z,1.97
2022-09-13T18:55:57.199Z,1.23
2022-09-13T18:58:46.911Z,1.70
2022-09-13T19:01:36.636Z,1.63
2022-09-13T19:04:24.926Z,1.33
2022-09-13T19:07:12.935Z,2.83
2022-09-13T19:10:01.062Z,1.93
2022-09-13T19:12:49.223Z,1.37
2022-09-13T19:15:39.255Z,1.00
2022-09-13T19:18:27.781Z,1.87
2022-09-13T19:21:18.411Z,1.47
2022-09-13T19:24:11.674Z,1.87
2022-09-13T19:27:02.631Z,1.50
2022-09-13T19:29:51.018Z,1.47
2022-09-13T19:32:40.600Z,1.23
2022-09-13T19:35:28.636Z,2.20
2022-09-13T19:38:16.714Z,1.50
2022-09-13T19:41:07.266Z,1.67
2022-09-13T19:43:56.583Z,2.17
2022-09-13T19:46:44.744Z,2.70
2022-09-13T19:49:34.417Z,2.10
2022-09-13T19:52:22.380Z,1.40
2022-09-13T19:55:11.029Z,2.50
2022-09-13T19:57:59.526Z,1.60
2022-09-13T20:00:47.781Z,2.07
2022-09-13T20:03:36.366Z,1.80
2022-09-13T20:06:27.961Z,1.10
2022-09-13T20:09:18.511Z,1.57
2022-09-13T20:12:07.373Z,1.03
2022-09-13T20:14:55.763Z,1.30
2022-09-13T20:17:44.129Z,1.57
2022-09-13T20:20:32.047Z,1.63
2022-09-13T20:23:23.646Z,1.80
2022-09-13T20:26:18.084Z,2.23
2022-09-13T20:29:09.126Z,1.77
2022-09-13T20:31:57.147Z,1.97
2022-09-13T20:34:45.919Z,5.27
2022-09-13T20:37:34.069Z,2.50
2022-09-13T20:40:24.230Z,2.37
2022-09-13T20:43:13.702Z,3.90
2022-09-13T20:46:02.415Z,2.60
2022-09-13T20:48:50.769Z,2.50
2022-09-13T20:51:39.052Z,2.77
2022-09-13T20:54:27.463Z,2.30
2022-09-13T20:57:17.117Z,2.23
2022-09-13T21:00:07.433Z,3.57
2022-09-13T21:02:55.954Z,1.20
2022-09-13T21:05:44.469Z,1.57
2022-09-13T21:08:46.962Z,2.40
2022-09-13T21:11:37.569Z,2.77
2022-09-13T21:14:27.100Z,2.53
2022-09-13T21:17:15.500Z,2.23
2022-09-13T21:20:04.012Z,1.73
2022-09-13T21:22:53.050Z,2.13
2022-09-13T21:25:41.142Z,3.07
2022-09-13T21:28:29.272Z,4.00
2022-09-13T21:31:21.875Z,3.20
2022-09-13T21:34:15.439Z,3.17
2022-09-13T21:37:03.429Z,2.00
2022-09-13T21:39:51.742Z,3.30
2022-09-13T21:42:39.849Z,3.43
2022-09-13T21:45:27.835Z,2.53
2022-09-13T21:48:17.596Z,1.70
2022-09-13T21:51:07.960Z,3.70
2022-09-13T21:53:58.933Z,2.73
2022-09-13T21:56:51.456Z,3.07
2022-09-13T21:59:39.561Z,2.27
2022-09-13T22:02:28.057Z,3.33
2022-09-13T22:05:18.287Z,2.53
2022-09-13T22:08:06.373Z,1.67
2022-09-13T22:10:54.616Z,1.70
2022-09-13T22:13:45.843Z,2.53
2022-09-13T22:16:36.053Z,4.13
2022-09-13T22:19:26.612Z,2.53
2022-09-13T22:22:16.166Z,1.70
2022-09-13T22:25:04.329Z,2.63
2022-09-13T22:27:52.499Z,3.23
2022-09-13T22:30:40.616Z,4.13
2022-09-13T22:33:28.533Z,2.30
2022-09-13T22:36:17.544Z,1.40
2022-09-13T22:39:07.317Z,3.83
2022-09-13T22:41:55.604Z,3.07
2022-09-13T22:44:43.604Z,2.83
2022-09-13T22:47:31.584Z,3.27
2022-09-13T22:50:19.738Z,4.73
2022-09-13T22:53:07.732Z,3.30
2022-09-13T22:56:04.030Z,3.60
2022-09-13T22:58:55.366Z,2.33
2022-09-13T23:01:43.727Z,2.60
2022-09-13T23:04:32.406Z,2.17
2022-09-13T23:07:20.521Z,4.80
2022-09-13T23:10:09.776Z,2.10
2022-09-13T23:12:59.205Z,2.50
2022-09-13T23:15:47.133Z,3.00
2022-09-13T23:18:35.850Z,3.93
2022-09-13T23:21:26.291Z,1.93
2022-09-13T23:24:15.630Z,3.80
2022-09-13T23:27:03.647Z,1.90
2022-09-13T23:29:53.673Z,2.27
2022-09-13T23:32:41.672Z,2.53
2022-09-13T23:35:29.880Z,3.20
2022-09-13T23:38:17.806Z,3.43
2022-09-13T23:41:06.078Z,2.80
2022-09-13T23:43:54.675Z,2.53
2022-09-13T23:46:44.677Z,1.83
2022-09-13T23:49:32.798Z,1.83
2022-09-13T23:52:20.756Z,4.60
2022-09-13T23:55:09.932Z,3.83
2022-09-13T23:57:58.630Z,2.43
